createdAt,value
2019-05-17T00:02:22.867Z,99.90
2019-05-17T00:04:50.453Z,99.90
2019-05-17T00:07:18.395Z,99.90
2019-05-17T00:09:47.835Z,99.90
2019-05-17T00:12:16.633Z,99.90
2019-05-17T00:14:47.132Z,99.90
2019-05-17T00:17:17.173Z,99.90
2019-05-17T00:19:46.495Z,99.90
2019-05-17T00:22:16.523Z,99.90
2019-05-17T00:24:43.762Z,99.90
2019-05-17T00:27:11.405Z,99.90
2019-05-17T00:29:39.048Z,99.90
2019-05-17T00:32:06.730Z,99.90
2019-05-17T00:34:34.437Z,99.90
2019-05-17T00:37:02.854Z,99.90
2019-05-17T00:39:31.161Z,99.90
2019-05-17T00:41:58.879Z,99.90
2019-05-17T00:44:27.166Z,99.90
2019-05-17T00:46:58.803Z,99.90
2019-05-17T00:49:26.463Z,99.90
2019-05-17T00:51:56.935Z,99.90
2019-05-17T00:54:26.920Z,99.90
2019-05-17T00:56:56.724Z,99.90
2019-05-17T00:59:26.203Z,99.90
2019-05-17T01:01:56.110Z,99.90
2019-05-17T01:04:23.653Z,99.90
2019-05-17T01:06:51.489Z,99.90
2019-05-17T01:09:19.075Z,99.90
2019-05-17T01:11:47.540Z,99.90
2019-05-17T01:14:17.602Z,99.90
2019-05-17T01:16:47.487Z,99.90
2019-05-17T01:19:16.379Z,99.90
2019-05-17T01:21:44.638Z,99.90
2019-05-17T01:24:12.817Z,99.90
2019-05-17T01:26:40.408Z,99.90
2019-05-17T01:29:07.954Z,99.90
2019-05-17T01:31:37.327Z,99.90
2019-05-17T01:34:07.127Z,99.90
2019-05-17T01:36:36.882Z,99.90
2019-05-17T01:39:16.984Z,99.90
2019-05-17T01:41:37.115Z,99.90
2019-05-17T01:44:04.279Z,99.90
2019-05-17T01:46:32.282Z,99.90
2019-05-17T01:49:00.311Z,99.90
2019-05-17T01:51:28.350Z,99.90
2019-05-17T01:53:57.331Z,99.90
2019-05-17T01:56:26.274Z,99.90
2019-05-17T01:58:54.715Z,99.90
2019-05-17T02:01:22.589Z,99.90
2019-05-17T02:03:50.532Z,99.90
2019-05-17T02:06:18.031Z,99.90
2019-05-17T02:08:47.511Z,99.90
2019-05-17T02:11:18.205Z,99.90
2019-05-17T02:13:46.720Z,99.90
2019-05-17T02:16:16.509Z,99.90
2019-05-17T02:18:44.006Z,99.90
2019-05-17T02:21:11.710Z,99.90
2019-05-17T02:23:39.372Z,99.90
2019-05-17T02:26:07.278Z,99.90
2019-05-17T02:28:35.145Z,99.90
2019-05-17T02:31:03.637Z,99.90
2019-05-17T02:33:33.501Z,99.90
2019-05-17T02:36:02.982Z,99.90
2019-05-17T02:38:33.316Z,99.90
2019-05-17T02:41:03.324Z,99.90
2019-05-17T02:43:33.435Z,99.90
2019-05-17T02:46:03.618Z,99.90
2019-05-17T02:48:33.389Z,99.90
2019-05-17T02:51:03.147Z,99.90
2019-05-17T02:53:29.412Z,99.90
2019-05-17T02:55:57.403Z,99.90
2019-05-17T02:58:25.572Z,99.90
2019-05-17T03:00:53.589Z,99.90
2019-05-17T03:03:23.722Z,99.90
2019-05-17T03:05:53.590Z,99.90
2019-05-17T03:08:23.465Z,99.90
2019-05-17T03:10:53.417Z,99.90
2019-05-17T03:13:23.172Z,99.90
2019-05-17T03:15:52.829Z,99.90
2019-05-17T03:18:22.610Z,99.90
2019-05-17T03:20:52.271Z,99.90
2019-05-17T03:23:18.471Z,99.90
2019-05-17T03:25:46.573Z,99.90
2019-05-17T03:28:14.303Z,99.90
2019-05-17T03:30:46.956Z,99.90
2019-05-17T03:33:16.011Z,99.90
2019-05-17T03:35:45.893Z,99.90
2019-05-17T03:38:14.093Z,99.90
2019-05-17T03:41:09.499Z,99.90
2019-05-17T03:43:13.790Z,99.90
2019-05-17T03:45:42.681Z,99.90
2019-05-17T03:48:12.979Z,99.90
2019-05-17T03:50:43.606Z,99.90
2019-05-17T03:53:13.157Z,99.90
2019-05-17T03:55:42.811Z,99.90
2019-05-17T03:58:12.506Z,99.90
2019-05-17T04:00:42.797Z,99.90
2019-05-17T04:03:13.222Z,99.90
2019-05-17T04:05:42.641Z,99.90
2019-05-17T04:08:08.829Z,99.90
2019-05-17T04:10:36.937Z,99.90
2019-05-17T04:13:04.762Z,99.90
2019-05-17T04:15:33.008Z,99.90
2019-05-17T04:18:04.239Z,99.90
2019-05-17T04:20:33.278Z,99.90
2019-05-17T04:23:04.017Z,99.90
2019-05-17T04:25:33.531Z,99.90
2019-05-17T04:28:02.820Z,99.90
2019-05-17T04:30:32.642Z,99.90
2019-05-17T04:33:03.037Z,99.90
2019-05-17T04:35:32.466Z,99.90
2019-05-17T04:38:03.678Z,99.90
2019-05-17T04:40:29.808Z,99.90
2019-05-17T04:42:57.539Z,99.90
2019-05-17T04:45:25.197Z,99.90
2019-05-17T04:47:53.613Z,99.90
2019-05-17T04:50:23.077Z,99.90
2019-05-17T04:52:53.573Z,99.90
2019-05-17T04:55:23.080Z,99.90
2019-05-17T04:57:53.087Z,99.90
2019-05-17T05:00:21.924Z,99.90
2019-05-17T05:02:52.544Z,99.90
2019-05-17T05:05:22.468Z,99.90
2019-05-17T05:07:49.630Z,99.90
2019-05-17T05:10:17.347Z,99.90
2019-05-17T05:12:45.030Z,99.90
2019-05-17T05:15:12.847Z,99.90
2019-05-17T05:17:42.561Z,99.90
2019-05-17T05:20:13.194Z,99.90
2019-05-17T05:22:42.618Z,99.90
2019-05-17T05:25:12.346Z,99.90
2019-05-17T05:27:42.612Z,99.90
2019-05-17T05:30:12.095Z,99.90
2019-05-17T05:32:42.601Z,99.90
2019-05-17T05:35:12.416Z,99.90
2019-05-17T05:37:42.388Z,99.90
2019-05-17T05:40:12.662Z,99.90
2019-05-17T05:42:42.584Z,99.90
2019-05-17T05:45:12.117Z,99.90
2019-05-17T05:47:41.577Z,99.90
2019-05-17T05:50:21.849Z,99.90
2019-05-17T05:52:49.412Z,99.90
2019-05-17T05:55:17.322Z,99.90
2019-05-17T05:57:45.218Z,99.90
2019-05-17T06:00:14.626Z,99.90
2019-05-17T06:02:42.423Z,99.90
2019-05-17T06:05:14.916Z,99.90
2019-05-17T06:07:41.788Z,99.90
2019-05-17T06:10:12.975Z,99.90
2019-05-17T06:12:43.507Z,99.90
2019-05-17T06:15:12.606Z,99.90
2019-05-17T06:17:42.678Z,99.90
2019-05-17T06:20:11.810Z,99.90
2019-05-17T06:22:42.489Z,99.90
2019-05-17T06:25:14.616Z,99.90
2019-05-17T06:27:41.535Z,99.90
2019-05-17T06:30:12.309Z,99.90
2019-05-17T06:32:42.712Z,99.90
2019-05-17T06:35:12.321Z,99.90
2019-05-17T06:37:39.204Z,99.90
2019-05-17T06:40:07.062Z,99.90
2019-05-17T06:42:41.000Z,99.90
2019-05-17T06:45:04.927Z,99.90
2019-05-17T06:47:32.967Z,99.90
2019-05-17T06:50:03.130Z,99.90
2019-05-17T06:52:32.497Z,99.90
2019-05-17T06:55:03.486Z,99.90
2019-05-17T06:57:32.395Z,99.90
2019-05-17T07:00:02.424Z,99.90
2019-05-17T07:02:31.461Z,99.90
2019-05-17T07:05:02.358Z,99.90
2019-05-17T07:07:31.450Z,99.90
2019-05-17T07:10:00.514Z,99.90
2019-05-17T07:12:30.729Z,99.90
2019-05-17T07:14:58.606Z,99.90
2019-05-17T07:17:30.266Z,99.90
2019-05-17T07:19:59.728Z,99.90
2019-05-17T07:22:29.481Z,99.90
2019-05-17T07:24:59.546Z,99.90
2019-05-17T07:27:38.701Z,99.90
2019-05-17T07:29:56.519Z,99.90
2019-05-17T07:32:24.454Z,99.90
2019-05-17T07:34:52.098Z,99.90
2019-05-17T07:37:20.167Z,99.90
2019-05-17T07:40:00.930Z,99.90
2019-05-17T07:42:19.430Z,99.90
2019-05-17T07:44:46.979Z,99.90
2019-05-17T07:47:14.623Z,99.90
2019-05-17T07:49:42.945Z,99.90
2019-05-17T07:52:10.669Z,99.90
2019-05-17T07:54:39.945Z,99.90
2019-05-17T07:57:10.161Z,99.90
2019-05-17T07:59:39.686Z,99.90
2019-05-17T08:02:07.212Z,99.90
2019-05-17T08:04:34.754Z,99.90
2019-05-17T08:07:03.009Z,99.90
2019-05-17T08:09:31.117Z,99.90
2019-05-17T08:11:59.771Z,99.90
2019-05-17T08:14:32.903Z,99.90
2019-05-17T08:16:59.800Z,99.90
2019-05-17T08:19:29.754Z,99.90
2019-05-17T08:21:56.508Z,99.90
2019-05-17T08:24:24.028Z,99.90
2019-05-17T08:26:51.618Z,99.90
2019-05-17T08:29:20.331Z,99.90
2019-05-17T08:31:49.690Z,99.90
2019-05-17T08:34:19.658Z,99.90
2019-05-17T08:36:46.841Z,99.90
2019-05-17T08:39:14.941Z,99.90
2019-05-17T08:41:42.717Z,99.90
2019-05-17T08:44:10.420Z,99.90
2019-05-17T08:46:39.867Z,99.90
2019-05-17T08:49:09.700Z,99.90
2019-05-17T08:51:39.607Z,99.90
2019-05-17T08:54:07.411Z,99.90
2019-05-17T08:56:35.305Z,99.90
2019-05-17T08:59:03.007Z,99.90
2019-05-17T09:01:30.820Z,99.90
2019-05-17T09:03:59.900Z,99.90
2019-05-17T09:06:29.328Z,99.90
2019-05-17T09:08:57.066Z,99.90
2019-05-17T09:11:24.625Z,99.90
2019-05-17T09:13:57.966Z,99.90
2019-05-17T09:16:21.745Z,99.90
2019-05-17T09:18:50.195Z,99.90
2019-05-17T09:21:21.697Z,99.90
2019-05-17T09:23:50.352Z,99.90
2019-05-17T09:26:19.941Z,99.90
2019-05-17T09:28:49.822Z,99.90
2019-05-17T09:31:17.333Z,99.90
2019-05-17T09:33:45.612Z,99.90
2019-05-17T09:36:13.464Z,99.90
2019-05-17T09:38:41.050Z,99.90
2019-05-17T09:41:09.428Z,99.90
2019-05-17T09:43:40.300Z,99.90
2019-05-17T09:46:10.520Z,99.90
2019-05-17T09:48:39.632Z,99.90
2019-05-17T09:51:07.407Z,99.90
2019-05-17T09:53:35.393Z,99.90
2019-05-17T09:56:02.915Z,99.90
2019-05-17T09:58:30.452Z,99.90
2019-05-17T10:01:01.063Z,99.90
2019-05-17T10:03:27.957Z,99.90
2019-05-17T10:05:55.532Z,99.90
2019-05-17T10:08:23.553Z,99.90
2019-05-17T10:11:04.992Z,99.90
2019-05-17T10:13:21.148Z,99.90
2019-05-17T10:15:50.163Z,98.50
2019-05-17T10:18:20.037Z,99.90
2019-05-17T10:20:47.615Z,98.20
2019-05-17T10:23:16.344Z,97.10
2019-05-17T10:25:44.839Z,94.40
2019-05-17T10:28:13.018Z,95.40
2019-05-17T10:30:40.692Z,93.50
2019-05-17T10:33:09.818Z,95.90
2019-05-17T10:35:40.380Z,97.90
2019-05-17T10:38:07.140Z,96.80
2019-05-17T10:40:35.207Z,99.40
2019-05-17T10:43:02.779Z,99.90
2019-05-17T10:45:30.596Z,99.90
2019-05-17T10:48:00.643Z,99.90
2019-05-17T10:50:29.800Z,99.50
2019-05-17T10:53:00.225Z,97.80
2019-05-17T10:55:27.472Z,99.20
2019-05-17T10:57:55.147Z,95.00
2019-05-17T11:00:24.572Z,94.50
2019-05-17T11:02:52.445Z,95.50
2019-05-17T11:05:20.325Z,96.20
2019-05-17T11:07:49.805Z,99.90
2019-05-17T11:10:19.441Z,98.50
2019-05-17T11:12:46.934Z,97.00
2019-05-17T11:15:15.218Z,96.20
2019-05-17T11:17:43.236Z,96.50
2019-05-17T11:20:11.370Z,97.00
2019-05-17T11:22:38.970Z,97.60
2019-05-17T11:25:06.750Z,96.80
2019-05-17T11:27:34.384Z,97.40
2019-05-17T11:30:02.148Z,99.50
2019-05-17T11:32:31.011Z,99.50
2019-05-17T11:34:58.808Z,98.20
2019-05-17T11:37:27.253Z,97.40
2019-05-17T11:39:55.498Z,97.30
2019-05-17T11:42:23.217Z,96.00
2019-05-17T11:44:51.230Z,93.90
2019-05-17T11:47:20.869Z,92.20
2019-05-17T11:49:48.644Z,94.20
2019-05-17T11:52:18.809Z,92.60
2019-05-17T11:54:46.603Z,91.40
2019-05-17T11:57:15.110Z,85.60
2019-05-17T11:59:43.165Z,85.10
2019-05-17T12:02:12.583Z,82.20
2019-05-17T12:04:40.816Z,87.40
2019-05-17T12:07:08.401Z,90.20
2019-05-17T12:09:37.693Z,89.00
2019-05-17T12:12:06.534Z,81.80
2019-05-17T12:14:34.585Z,61.90
2019-05-17T12:17:02.708Z,51.00
2019-05-17T12:19:31.355Z,45.30
2019-05-17T12:21:59.350Z,43.60
2019-05-17T12:24:27.161Z,44.30
2019-05-17T12:26:55.607Z,45.80
2019-05-17T12:29:23.942Z,46.10
2019-05-17T12:31:52.057Z,48.10
2019-05-17T12:34:19.866Z,49.80
2019-05-17T12:36:47.626Z,49.90
2019-05-17T12:39:16.454Z,50.90
2019-05-17T12:41:44.805Z,52.50
2019-05-17T12:44:13.465Z,51.80
2019-05-17T12:46:41.293Z,51.70
2019-05-17T12:49:09.085Z,50.60
2019-05-17T12:51:36.990Z,49.00
2019-05-17T12:54:05.309Z,48.90
2019-05-17T12:56:34.401Z,48.60
2019-05-17T12:59:02.707Z,48.10
2019-05-17T13:01:30.510Z,47.00
2019-05-17T13:03:58.442Z,47.60
2019-05-17T13:06:26.707Z,50.40
2019-05-17T13:08:57.351Z,52.00
2019-05-17T13:11:26.584Z,55.00
2019-05-17T13:13:54.816Z,53.70
2019-05-17T13:16:22.606Z,55.30
2019-05-17T13:18:54.137Z,55.40
2019-05-17T13:21:22.265Z,54.90
2019-05-17T13:23:50.151Z,55.40
2019-05-17T13:26:18.577Z,55.50
2019-05-17T13:28:46.615Z,55.20
2019-05-17T13:31:16.626Z,52.90
2019-05-17T13:33:44.807Z,52.60
2019-05-17T13:36:12.955Z,53.20
2019-05-17T13:38:41.485Z,52.80
2019-05-17T13:41:11.376Z,52.90
2019-05-17T13:43:39.887Z,53.20
2019-05-17T13:46:07.679Z,50.70
2019-05-17T13:48:35.817Z,46.00
2019-05-17T13:51:04.142Z,42.90
2019-05-17T13:53:31.915Z,43.10
2019-05-17T13:55:59.581Z,43.70
2019-05-17T13:58:27.642Z,42.90
2019-05-17T14:00:55.899Z,40.80
2019-05-17T14:03:23.751Z,40.30
2019-05-17T14:05:51.700Z,38.30
2019-05-17T14:08:19.515Z,40.10
2019-05-17T14:10:48.071Z,42.30
2019-05-17T14:13:16.081Z,43.70
2019-05-17T14:15:44.833Z,45.10
2019-05-17T14:18:12.752Z,45.60
2019-05-17T14:20:41.299Z,44.90
2019-05-17T14:23:09.304Z,46.00
2019-05-17T14:25:37.557Z,46.10
2019-05-17T14:28:05.835Z,46.60
2019-05-17T14:30:35.661Z,45.90
2019-05-17T14:33:06.617Z,45.70
2019-05-17T14:35:34.723Z,46.40
2019-05-17T14:38:03.408Z,48.30
2019-05-17T14:41:04.052Z,51.10
2019-05-17T14:43:00.739Z,52.30
2019-05-17T14:45:29.039Z,52.80
2019-05-17T14:47:57.696Z,51.60
2019-05-17T14:50:25.796Z,49.60
2019-05-17T14:52:54.289Z,46.10
2019-05-17T14:55:24.163Z,42.00
2019-05-17T14:57:51.784Z,40.40
2019-05-17T15:00:20.191Z,39.30
2019-05-17T15:02:48.683Z,41.30
2019-05-17T15:05:17.562Z,44.00
2019-05-17T15:07:45.708Z,45.10
2019-05-17T15:10:14.066Z,44.90
2019-05-17T15:12:41.847Z,45.30
2019-05-17T15:15:10.075Z,45.90
2019-05-17T15:17:39.407Z,46.20
2019-05-17T15:20:07.612Z,46.40
2019-05-17T15:22:36.202Z,46.70
2019-05-17T15:25:04.256Z,47.40
2019-05-17T15:27:33.098Z,49.00
2019-05-17T15:30:01.041Z,49.80
2019-05-17T15:32:29.075Z,50.00
2019-05-17T15:34:56.887Z,51.10
2019-05-17T15:37:24.872Z,52.60
2019-05-17T15:39:53.220Z,53.80
2019-05-17T15:42:21.148Z,54.40
2019-05-17T15:44:49.126Z,55.60
2019-05-17T15:47:22.677Z,56.30
2019-05-17T15:49:52.493Z,56.10
2019-05-17T15:52:20.490Z,53.90
2019-05-17T15:54:49.005Z,51.20
2019-05-17T15:57:18.586Z,49.20
2019-05-17T15:59:47.028Z,48.40
2019-05-17T16:02:15.407Z,48.70
2019-05-17T16:04:43.600Z,48.50
2019-05-17T16:07:11.791Z,49.10
2019-05-17T16:09:39.979Z,50.00
2019-05-17T16:12:07.817Z,51.20
2019-05-17T16:14:36.071Z,52.60
2019-05-17T16:17:03.910Z,53.40
2019-05-17T16:19:33.308Z,54.30
2019-05-17T16:22:01.317Z,54.20
2019-05-17T16:24:29.984Z,53.40
2019-05-17T16:26:58.855Z,53.50
2019-05-17T16:29:27.320Z,53.60
2019-05-17T16:31:55.509Z,54.90
2019-05-17T16:34:23.572Z,55.60
2019-05-17T16:36:51.612Z,55.50
2019-05-17T16:39:20.105Z,55.50
2019-05-17T16:41:48.616Z,56.60
2019-05-17T16:44:18.007Z,59.10
2019-05-17T16:46:46.263Z,59.50
2019-05-17T16:49:14.423Z,60.10
2019-05-17T16:51:42.263Z,59.20
2019-05-17T16:54:13.440Z,61.50
2019-05-17T16:56:41.279Z,62.80
2019-05-17T16:59:09.460Z,64.60
2019-05-17T17:01:37.378Z,67.60
2019-05-17T17:04:05.233Z,70.70
2019-05-17T17:06:33.993Z,71.30
2019-05-17T17:09:01.720Z,71.80
2019-05-17T17:11:31.998Z,68.50
2019-05-17T17:13:59.604Z,68.30
2019-05-17T17:16:27.664Z,70.90
2019-05-17T17:18:56.024Z,69.90
2019-05-17T17:21:23.987Z,69.80
2019-05-17T17:23:52.375Z,69.30
2019-05-17T17:26:20.150Z,70.90
2019-05-17T17:28:48.046Z,73.90
2019-05-17T17:31:16.475Z,77.10
2019-05-17T17:33:44.846Z,80.60
2019-05-17T17:36:12.720Z,82.60
2019-05-17T17:38:40.637Z,83.20
2019-05-17T17:41:08.525Z,86.70
2019-05-17T17:43:36.485Z,89.00
2019-05-17T17:46:04.499Z,90.80
2019-05-17T17:48:32.350Z,90.90
2019-05-17T17:51:01.640Z,89.90
2019-05-17T17:53:30.660Z,90.50
2019-05-17T17:55:58.974Z,90.40
2019-05-17T17:58:27.072Z,90.00
2019-05-17T18:00:55.223Z,91.00
2019-05-17T18:03:23.032Z,92.10
2019-05-17T18:05:51.028Z,93.10
2019-05-17T18:08:19.381Z,92.50
2019-05-17T18:10:47.205Z,91.50
2019-05-17T18:13:15.346Z,91.60
2019-05-17T18:15:44.601Z,91.30
2019-05-17T18:18:12.869Z,92.30
2019-05-17T18:20:40.452Z,91.90
2019-05-17T18:23:08.800Z,91.80
2019-05-17T18:25:37.264Z,93.10
2019-05-17T18:28:06.332Z,93.30
2019-05-17T18:30:34.352Z,93.80
2019-05-17T18:33:02.309Z,94.50
2019-05-17T18:35:30.884Z,95.10
2019-05-17T18:37:58.617Z,95.30
2019-05-17T18:40:26.935Z,95.70
2019-05-17T18:42:55.401Z,96.40
2019-05-17T18:45:23.993Z,95.90
2019-05-17T18:47:51.990Z,96.40
2019-05-17T18:50:21.602Z,96.60
2019-05-17T18:52:49.640Z,96.60
2019-05-17T18:55:17.609Z,97.70
2019-05-17T18:57:45.940Z,97.60
2019-05-17T19:00:15.087Z,97.90
2019-05-17T19:02:43.340Z,98.50
2019-05-17T19:05:12.434Z,99.10
2019-05-17T19:07:40.595Z,99.80
2019-05-17T19:10:10.348Z,99.90
2019-05-17T19:12:38.161Z,99.90
2019-05-17T19:15:06.658Z,99.90
2019-05-17T19:17:34.873Z,99.90
2019-05-17T19:20:03.419Z,99.90
2019-05-17T19:22:31.197Z,99.90
2019-05-17T19:24:59.385Z,99.90
2019-05-17T19:27:27.167Z,99.90
2019-05-17T19:29:54.971Z,99.90
2019-05-17T19:32:22.883Z,99.90
2019-05-17T19:34:51.916Z,99.90
2019-05-17T19:37:19.736Z,99.90
2019-05-17T19:39:47.525Z,99.90
2019-05-17T19:42:16.017Z,99.90
2019-05-17T19:44:58.019Z,99.90
2019-05-17T19:47:14.761Z,99.90
2019-05-17T19:49:42.833Z,99.90
2019-05-17T19:52:11.102Z,99.90
2019-05-17T19:54:39.034Z,99.90
2019-05-17T19:57:07.324Z,99.90
2019-05-17T19:59:36.098Z,99.90
2019-05-17T20:02:06.514Z,99.90
2019-05-17T20:04:33.601Z,99.90
2019-05-17T20:07:03.900Z,99.90
2019-05-17T20:09:32.078Z,99.90
2019-05-17T20:12:00.198Z,99.90
2019-05-17T20:14:28.559Z,99.90
2019-05-17T20:16:56.710Z,99.90
2019-05-17T20:19:24.539Z,99.90
2019-05-17T20:21:54.444Z,99.90
2019-05-17T20:24:22.763Z,99.90
2019-05-17T20:26:51.020Z,99.90
2019-05-17T20:29:21.929Z,99.90
2019-05-17T20:31:50.249Z,99.90
2019-05-17T20:34:17.952Z,99.90
2019-05-17T20:36:46.601Z,99.90
2019-05-17T20:39:14.641Z,99.90
2019-05-17T20:41:42.486Z,99.90
2019-05-17T20:44:11.075Z,99.90
2019-05-17T20:46:38.743Z,99.90
2019-05-17T20:49:06.567Z,99.90
2019-05-17T20:51:34.766Z,99.90
2019-05-17T20:54:03.006Z,99.90
2019-05-17T20:56:33.312Z,99.90
2019-05-17T20:59:01.332Z,99.90
2019-05-17T21:01:30.004Z,99.90
2019-05-17T21:03:57.979Z,99.90
2019-05-17T21:06:26.256Z,99.90
2019-05-17T21:08:53.813Z,99.90
2019-05-17T21:11:21.950Z,99.90
2019-05-17T21:13:49.902Z,99.90
2019-05-17T21:16:18.132Z,99.90
2019-05-17T21:18:46.531Z,99.90
2019-05-17T21:21:14.715Z,99.90
2019-05-17T21:23:42.641Z,99.90
2019-05-17T21:26:10.690Z,99.90
2019-05-17T21:28:38.846Z,99.90
2019-05-17T21:31:08.118Z,99.90
2019-05-17T21:33:36.145Z,99.90
2019-05-17T21:36:04.997Z,99.90
2019-05-17T21:38:33.736Z,99.90
2019-05-17T21:41:01.689Z,99.90
2019-05-17T21:43:29.786Z,99.90
2019-05-17T21:46:04.157Z,99.90
2019-05-17T21:48:31.412Z,99.90
2019-05-17T21:50:59.356Z,99.90
2019-05-17T21:53:27.263Z,99.90
2019-05-17T21:55:55.280Z,99.90
2019-05-17T21:58:23.465Z,99.90
2019-05-17T22:01:08.958Z,99.90
2019-05-17T22:03:36.680Z,99.90
2019-05-17T22:06:04.564Z,99.90
2019-05-17T22:08:32.285Z,99.90
2019-05-17T22:10:59.913Z,99.90
2019-05-17T22:13:28.058Z,99.90
2019-05-17T22:15:55.849Z,99.90
2019-05-17T22:18:23.922Z,99.90
2019-05-17T22:20:51.753Z,99.90
2019-05-17T22:23:19.419Z,99.90
2019-05-17T22:25:47.891Z,99.90
2019-05-17T22:28:16.117Z,99.90
2019-05-17T22:30:43.720Z,99.90
2019-05-17T22:33:12.018Z,99.90
2019-05-17T22:35:39.633Z,99.90
2019-05-17T22:38:07.751Z,99.90
2019-05-17T22:40:37.298Z,99.90
2019-05-17T22:43:07.989Z,99.90
2019-05-17T22:45:35.672Z,99.90
2019-05-17T22:48:03.732Z,99.90
2019-05-17T22:50:31.477Z,99.90
2019-05-17T22:52:59.395Z,99.90
2019-05-17T22:55:27.743Z,99.90
2019-05-17T22:57:55.352Z,99.90
2019-05-17T23:00:23.317Z,99.90
2019-05-17T23:02:51.066Z,99.90
2019-05-17T23:05:25.662Z,99.90
2019-05-17T23:07:48.352Z,99.90
2019-05-17T23:10:16.051Z,99.90
2019-05-17T23:12:44.053Z,99.90
2019-05-17T23:15:12.023Z,99.90
2019-05-17T23:17:39.725Z,99.90
2019-05-17T23:20:07.539Z,99.90
2019-05-17T23:22:35.175Z,99.90
2019-05-17T23:25:03.051Z,99.90
2019-05-17T23:27:30.751Z,99.90
2019-05-17T23:29:58.765Z,99.90
2019-05-17T23:32:26.383Z,99.90
2019-05-17T23:34:54.367Z,99.90
2019-05-17T23:37:22.235Z,99.90
2019-05-17T23:39:50.252Z,99.90
2019-05-17T23:42:18.188Z,99.90
2019-05-17T23:44:45.936Z,99.90
2019-05-17T23:47:14.031Z,99.90
2019-05-17T23:49:42.268Z,99.90
2019-05-17T23:52:10.382Z,99.90
2019-05-17T23:54:38.545Z,99.90
2019-05-17T23:57:06.443Z,99.90
2019-05-17T23:59:34.540Z,99.90
